Time;durP1;ratioP1;P1;durP2;ratioP2;P2;SDS_P1;SDS_P2;PMS_P1;PMS_P2;Temp;Humidity;BMP_temperature;BMP_pressure;BME280_temperature;BME280_humidity;BME280_pressure;Samples;Min_cycle;Max_cycle;Signal;HPM_P1;HPM_P2
2022/03/30 00:00:41;;;;;;;19.75;10.80;;;;;;;;;;4969887;28;20834;-82
2022/03/30 00:03:07;;;;;;;20.73;10.38;;;;;;;;;;4964862;28;20038;-82
2022/03/30 00:05:32;;;;;;;20.85;10.98;;;;;;;;;;4969734;28;20545;-88
2022/03/30 00:07:57;;;;;;;22.10;10.15;;;;;;;;;;4973869;28;20015;-88
2022/03/30 00:10:23;;;;;;;21.27;10.80;;;;;;;;;;4964474;28;20038;-89
2022/03/30 00:12:49;;;;;;;19.35;10.75;;;;;;;;;;4959103;28;20053;-87
2022/03/30 00:15:16;;;;;;;23.45;11.10;;;;;;;;;;4961458;28;20035;-82
2022/03/30 00:17:41;;;;;;;24.83;11.45;;;;;;;;;;4964026;28;20057;-81
2022/03/30 00:20:07;;;;;;;21.25;11.02;;;;;;;;;;4969242;28;20827;-88
2022/03/30 00:22:33;;;;;;;21.20;11.00;;;;;;;;;;4961732;28;20058;-83
2022/03/30 00:24:58;;;;;;;23.17;11.10;;;;;;;;;;4966397;28;20043;-83
2022/03/30 00:27:23;;;;;;;29.42;11.73;;;;;;;;;;4964798;28;20498;-86
2022/03/30 00:29:49;;;;;;;21.33;10.75;;;;;;;;;;4966644;28;20487;-86
2022/03/30 00:32:15;;;;;;;21.63;11.15;;;;;;;;;;4965059;28;20814;-82
2022/03/30 00:34:40;;;;;;;19.83;10.60;;;;;;;;;;4970995;28;20097;-81
2022/03/30 00:37:09;;;;;;;20.98;11.00;;;;;;;;;;4968926;28;20118;-88
2022/03/30 00:39:34;;;;;;;20.38;11.35;;;;;;;;;;4964248;28;20086;-88
2022/03/30 00:42:00;;;;;;;21.58;10.60;;;;;;;;;;4963971;28;20031;-84
2022/03/30 00:44:26;;;;;;;21.38;11.05;;;;;;;;;;4961865;28;20050;-88
2022/03/30 00:46:51;;;;;;;22.83;11.27;;;;;;;;;;4962471;28;20471;-81
2022/03/30 00:49:18;;;;;;;25.13;11.45;;;;;;;;;;4961014;28;20046;-82
2022/03/30 00:51:43;;;;;;;24.10;11.15;;;;;;;;;;4959712;28;20023;-82
2022/03/30 00:54:09;;;;;;;18.58;11.25;;;;;;;;;;4963902;28;20537;-88
2022/03/30 00:56:36;;;;;;;21.55;11.55;;;;;;;;;;4965572;28;20022;-86
2022/03/30 00:59:05;;;;;;;22.25;11.75;;;;;;;;;;4956865;28;20031;-87
2022/03/30 01:01:31;;;;;;;24.50;11.82;;;;;;;;;;4966945;28;20453;-87
2022/03/30 01:03:57;;;;;;;21.95;12.02;;;;;;;;;;4966864;28;20026;-88
2022/03/30 01:06:22;;;;;;;19.40;11.10;;;;;;;;;;4960225;28;20442;-88
2022/03/30 01:08:48;;;;;;;21.40;11.25;;;;;;;;;;4961943;28;20101;-87
2022/03/30 01:11:15;;;;;;;20.70;11.45;;;;;;;;;;4970017;28;20057;-86
2022/03/30 01:13:40;;;;;;;24.05;11.18;;;;;;;;;;4964724;28;20027;-83
2022/03/30 01:16:06;;;;;;;20.13;11.70;;;;;;;;;;4970022;28;20022;-88
2022/03/30 01:18:41;;;;;;;23.42;11.60;;;;;;;;;;4969296;28;20022;-88
2022/03/30 01:21:08;;;;;;;20.95;11.57;;;;;;;;;;4966331;28;20084;-82
2022/03/30 01:23:34;;;;;;;20.63;11.63;;;;;;;;;;4969237;28;20051;-88
2022/03/30 01:25:59;;;;;;;18.40;11.38;;;;;;;;;;4982067;28;20031;-88
2022/03/30 01:28:28;;;;;;;26.20;11.30;;;;;;;;;;4966441;28;20453;-84
2022/03/30 01:33:42;;;;;;;23.80;12.10;;;;;;;;;;4970111;28;20085;-82
2022/03/30 01:36:07;;;;;;;23.33;12.05;;;;;;;;;;4968342;28;20394;-87
2022/03/30 01:38:32;;;;;;;22.17;12.18;;;;;;;;;;4971494;28;20023;-82
2022/03/30 01:40:58;;;;;;;22.20;12.02;;;;;;;;;;4966411;28;20147;-83
2022/03/30 01:43:23;;;;;;;19.17;10.88;;;;;;;;;;4970470;28;20026;-86
2022/03/30 01:45:48;;;;;;;17.92;10.88;;;;;;;;;;4964620;28;20035;-82
2022/03/30 01:48:14;;;;;;;22.80;11.15;;;;;;;;;;4965713;28;20147;-82
2022/03/30 01:50:39;;;;;;;19.30;10.43;;;;;;;;;;4965770;28;20566;-82
2022/03/30 01:53:04;;;;;;;20.75;11.55;;;;;;;;;;4963842;28;20054;-88
2022/03/30 01:55:30;;;;;;;26.38;11.95;;;;;;;;;;4969210;28;20027;-87
2022/03/30 01:57:55;;;;;;;23.65;11.95;;;;;;;;;;4961427;28;20042;-88
2022/03/30 02:00:24;;;;;;;24.00;11.52;;;;;;;;;;4960404;28;20027;-88
2022/03/30 02:02:49;;;;;;;20.95;11.32;;;;;;;;;;4966024;28;20086;-82
2022/03/30 02:05:17;;;;;;;21.88;11.60;;;;;;;;;;4959303;28;20447;-82
2022/03/30 02:07:43;;;;;;;20.70;10.90;;;;;;;;;;4972245;28;20038;-82
2022/03/30 02:10:08;;;;;;;21.38;11.75;;;;;;;;;;4970806;28;20076;-82
2022/03/30 02:12:34;;;;;;;23.13;10.98;;;;;;;;;;4967137;28;20541;-82
2022/03/30 02:15:00;;;;;;;22.33;11.70;;;;;;;;;;4967932;28;20039;-89
2022/03/30 02:17:27;;;;;;;23.67;11.70;;;;;;;;;;4978231;28;20030;-82
2022/03/30 02:19:53;;;;;;;24.20;11.70;;;;;;;;;;4962090;28;20026;-81
2022/03/30 02:22:19;;;;;;;20.30;11.43;;;;;;;;;;4988422;28;20138;-82
2022/03/30 02:24:44;;;;;;;23.98;12.38;;;;;;;;;;4971386;28;20125;-82
2022/03/30 02:27:09;;;;;;;22.23;11.65;;;;;;;;;;4967607;28;20031;-81
2022/03/30 02:29:35;;;;;;;19.85;10.73;;;;;;;;;;4966596;28;20086;-82
2022/03/30 02:32:01;;;;;;;23.98;11.63;;;;;;;;;;4970226;28;20038;-88
2022/03/30 02:34:27;;;;;;;21.17;12.02;;;;;;;;;;4968659;28;20472;-83
2022/03/30 02:36:53;;;;;;;21.80;11.40;;;;;;;;;;4966229;28;20440;-81
2022/03/30 02:39:19;;;;;;;23.85;11.55;;;;;;;;;;4969914;28;20061;-86
2022/03/30 02:41:45;;;;;;;23.98;11.55;;;;;;;;;;4968794;28;20644;-89
2022/03/30 02:44:12;;;;;;;22.30;11.55;;;;;;;;;;4962902;28;20030;-88
2022/03/30 02:46:38;;;;;;;20.30;10.60;;;;;;;;;;4970008;28;20415;-81
2022/03/30 02:49:04;;;;;;;20.08;10.77;;;;;;;;;;4969814;28;20046;-87
2022/03/30 02:51:30;;;;;;;21.77;11.05;;;;;;;;;;4966436;28;20034;-87
2022/03/30 02:53:55;;;;;;;22.13;10.57;;;;;;;;;;4965175;28;20023;-82
2022/03/30 02:56:20;;;;;;;24.85;11.20;;;;;;;;;;4971255;28;20026;-83
2022/03/30 02:58:46;;;;;;;20.15;11.05;;;;;;;;;;4967506;28;20031;-81
2022/03/30 03:01:11;;;;;;;24.95;11.50;;;;;;;;;;4967558;28;20034;-82
2022/03/30 03:03:36;;;;;;;24.98;11.15;;;;;;;;;;4968632;28;20039;-81
2022/03/30 03:06:02;;;;;;;24.30;11.98;;;;;;;;;;4959554;28;20041;-81
2022/03/30 03:08:27;;;;;;;24.60;12.00;;;;;;;;;;4966228;28;20037;-83
2022/03/30 03:10:53;;;;;;;19.90;11.43;;;;;;;;;;4969276;28;20073;-82
2022/03/30 03:13:18;;;;;;;19.85;10.38;;;;;;;;;;4963834;28;20105;-88
2022/03/30 03:15:46;;;;;;;21.10;10.98;;;;;;;;;;4963785;28;20118;-87
2022/03/30 03:18:12;;;;;;;22.65;11.52;;;;;;;;;;4969996;28;20066;-88
2022/03/30 03:20:41;;;;;;;23.58;11.55;;;;;;;;;;4972632;28;20023;-88
2022/03/30 03:23:06;;;;;;;20.58;11.15;;;;;;;;;;4962306;28;20058;-87
2022/03/30 03:25:33;;;;;;;22.35;10.80;;;;;;;;;;4967547;28;20037;-82
2022/03/30 03:28:00;;;;;;;22.17;11.65;;;;;;;;;;4963172;28;20110;-87
2022/03/30 03:30:26;;;;;;;21.25;11.57;;;;;;;;;;4986456;28;20035;-81
2022/03/30 03:32:51;;;;;;;22.40;11.60;;;;;;;;;;4970418;28;20034;-82
2022/03/30 03:35:16;;;;;;;21.73;11.30;;;;;;;;;;4965138;28;20380;-83
2022/03/30 03:37:43;;;;;;;21.23;11.10;;;;;;;;;;4963354;28;20629;-88
2022/03/30 03:40:09;;;;;;;23.58;10.98;;;;;;;;;;4963420;28;20042;-88
2022/03/30 03:42:36;;;;;;;24.63;10.90;;;;;;;;;;4965565;28;20054;-85
2022/03/30 03:45:02;;;;;;;21.63;10.75;;;;;;;;;;4960884;28;20045;-81
2022/03/30 03:47:28;;;;;;;23.17;10.63;;;;;;;;;;4973710;28;20046;-87
2022/03/30 03:49:53;;;;;;;22.63;11.18;;;;;;;;;;4977501;28;20015;-84
2022/03/30 03:52:18;;;;;;;19.67;10.57;;;;;;;;;;4978146;28;20029;-82
2022/03/30 03:54:44;;;;;;;20.65;10.68;;;;;;;;;;4963504;28;20026;-84
2022/03/30 03:57:09;;;;;;;23.55;11.52;;;;;;;;;;4968153;28;20022;-84
2022/03/30 03:59:38;;;;;;;22.17;10.68;;;;;;;;;;4968466;28;20023;-88
2022/03/30 04:02:05;;;;;;;23.25;10.60;;;;;;;;;;4967963;28;20038;-86
2022/03/30 04:04:31;;;;;;;22.27;10.95;;;;;;;;;;4966783;28;20107;-84
2022/03/30 04:06:56;;;;;;;21.02;9.73;;;;;;;;;;4963026;28;20030;-86
2022/03/30 04:09:22;;;;;;;21.20;10.13;;;;;;;;;;4966806;28;20080;-87
2022/03/30 04:11:47;;;;;;;18.80;10.43;;;;;;;;;;4968050;28;20027;-83
2022/03/30 04:14:15;;;;;;;18.50;10.23;;;;;;;;;;4960059;28;20030;-89
2022/03/30 04:16:41;;;;;;;19.80;9.95;;;;;;;;;;4970059;28;20042;-82
2022/03/30 04:19:07;;;;;;;20.33;10.32;;;;;;;;;;4973294;28;20027;-87
2022/03/30 04:21:32;;;;;;;19.35;10.57;;;;;;;;;;4964442;28;20154;-83
2022/03/30 04:23:57;;;;;;;20.73;10.40;;;;;;;;;;4961087;28;20076;-81
2022/03/30 04:26:23;;;;;;;20.55;10.38;;;;;;;;;;4966460;28;20033;-87
2022/03/30 04:28:48;;;;;;;22.17;11.50;;;;;;;;;;4964335;28;20039;-84
2022/03/30 04:31:14;;;;;;;19.90;9.25;;;;;;;;;;4969606;28;20109;-83
2022/03/30 04:33:39;;;;;;;21.73;10.20;;;;;;;;;;4965525;28;20023;-86
2022/03/30 04:36:05;;;;;;;20.73;10.27;;;;;;;;;;4970358;28;20026;-83
2022/03/30 04:38:32;;;;;;;19.65;9.23;;;;;;;;;;4964411;28;20023;-82
2022/03/30 04:40:57;;;;;;;19.45;9.90;;;;;;;;;;4970198;28;20089;-85
2022/03/30 04:43:23;;;;;;;22.88;10.20;;;;;;;;;;4964653;28;20027;-87
2022/03/30 04:45:48;;;;;;;20.40;10.70;;;;;;;;;;4960290;28;20038;-83
2022/03/30 04:48:14;;;;;;;18.52;9.55;;;;;;;;;;4964402;28;20042;-87
2022/03/30 04:50:39;;;;;;;22.40;9.77;;;;;;;;;;4966600;28;20030;-80
2022/03/30 04:53:05;;;;;;;22.27;10.40;;;;;;;;;;4961499;28;20455;-87
2022/03/30 04:55:31;;;;;;;18.90;10.18;;;;;;;;;;4964124;28;20033;-81
2022/03/30 04:57:58;;;;;;;18.45;9.70;;;;;;;;;;4971001;28;20051;-86
2022/03/30 05:00:23;;;;;;;18.25;10.25;;;;;;;;;;4971247;28;20045;-82
2022/03/30 05:02:48;;;;;;;21.23;9.85;;;;;;;;;;4972288;28;20027;-81
2022/03/30 05:05:14;;;;;;;21.45;10.27;;;;;;;;;;4974500;28;20034;-86
2022/03/30 05:07:39;;;;;;;18.00;9.45;;;;;;;;;;4966640;28;20157;-81
2022/03/30 05:10:10;;;;;;;17.33;9.18;;;;;;;;;;4969395;28;20035;-88
2022/03/30 05:12:36;;;;;;;18.20;10.20;;;;;;;;;;4968227;28;20133;-79
2022/03/30 05:15:02;;;;;;;18.30;9.38;;;;;;;;;;4967283;28;20471;-86
2022/03/30 05:17:27;;;;;;;21.30;9.63;;;;;;;;;;4959513;28;20161;-88
2022/03/30 05:19:53;;;;;;;20.70;10.48;;;;;;;;;;4967022;28;20031;-82
2022/03/30 05:22:18;;;;;;;18.30;9.93;;;;;;;;;;4964064;28;20046;-81
2022/03/30 05:24:43;;;;;;;18.40;9.48;;;;;;;;;;4974894;28;20109;-88
2022/03/30 05:27:09;;;;;;;22.02;9.73;;;;;;;;;;4969304;28;20030;-86
2022/03/30 05:29:36;;;;;;;20.95;10.40;;;;;;;;;;4969275;28;20018;-85
2022/03/30 05:32:01;;;;;;;20.83;10.35;;;;;;;;;;4975788;28;20026;-83
2022/03/30 05:34:27;;;;;;;23.45;9.88;;;;;;;;;;4969494;28;20049;-80
2022/03/30 05:36:52;;;;;;;18.52;9.00;;;;;;;;;;4975484;28;20027;-86
2022/03/30 05:39:18;;;;;;;20.70;10.20;;;;;;;;;;4976887;28;20035;-86
2022/03/30 05:41:43;;;;;;;21.77;10.77;;;;;;;;;;4965893;28;20035;-81
2022/03/30 05:44:08;;;;;;;21.52;10.35;;;;;;;;;;4969527;28;20030;-82
2022/03/30 05:46:36;;;;;;;20.90;9.88;;;;;;;;;;4965620;28;20062;-87
2022/03/30 05:49:05;;;;;;;23.52;9.90;;;;;;;;;;4964906;28;20026;-87
2022/03/30 05:51:30;;;;;;;20.63;10.25;;;;;;;;;;4965220;28;20027;-86
2022/03/30 05:53:56;;;;;;;22.33;9.65;;;;;;;;;;4960719;28;20507;-87
2022/03/30 05:57:00;;;;;;;19.45;9.80;;;;;;;;;;4973659;28;20040;-82
2022/03/30 05:59:07;;;;;;;20.48;10.25;;;;;;;;;;4970230;28;20399;-82
2022/03/30 06:01:32;;;;;;;21.00;9.65;;;;;;;;;;4973142;28;20034;-81
2022/03/30 06:03:57;;;;;;;22.58;10.20;;;;;;;;;;4978553;28;20038;-82
2022/03/30 06:06:23;;;;;;;19.33;9.88;;;;;;;;;;4976191;28;20037;-81
2022/03/30 06:08:48;;;;;;;24.40;10.80;;;;;;;;;;4971757;28;20055;-82
2022/03/30 06:11:13;;;;;;;20.77;10.73;;;;;;;;;;4967786;28;20098;-86
2022/03/30 06:13:39;;;;;;;21.63;10.75;;;;;;;;;;4970317;28;20027;-82
2022/03/30 06:16:04;;;;;;;21.33;10.68;;;;;;;;;;4967088;28;20031;-82
2022/03/30 06:18:29;;;;;;;19.27;9.73;;;;;;;;;;4973893;28;20122;-87
2022/03/30 06:20:55;;;;;;;20.42;10.88;;;;;;;;;;4975271;28;20057;-81
2022/03/30 06:23:20;;;;;;;22.10;10.38;;;;;;;;;;4973736;28;20159;-85
2022/03/30 06:25:46;;;;;;;21.10;10.70;;;;;;;;;;4962514;28;20511;-82
2022/03/30 06:28:12;;;;;;;19.90;10.27;;;;;;;;;;4964355;28;20035;-84
2022/03/30 06:30:38;;;;;;;22.75;10.45;;;;;;;;;;4966501;28;20096;-84
2022/03/30 06:33:03;;;;;;;20.23;10.13;;;;;;;;;;4964351;28;20095;-82
2022/03/30 06:35:29;;;;;;;21.05;10.10;;;;;;;;;;4959604;28;20510;-87
2022/03/30 06:37:54;;;;;;;19.52;10.45;;;;;;;;;;4963769;28;20109;-85
2022/03/30 06:40:20;;;;;;;19.50;10.00;;;;;;;;;;4971827;28;20027;-86
2022/03/30 06:42:45;;;;;;;21.48;10.02;;;;;;;;;;4966553;28;20429;-81
2022/03/30 06:45:11;;;;;;;22.40;10.48;;;;;;;;;;4967182;28;20031;-81
2022/03/30 06:47:37;;;;;;;19.08;10.00;;;;;;;;;;4977683;28;20053;-82
2022/03/30 06:50:05;;;;;;;20.02;10.52;;;;;;;;;;4970626;28;20043;-82
2022/03/30 06:52:32;;;;;;;19.98;11.10;;;;;;;;;;4966201;28;20033;-87
2022/03/30 06:54:59;;;;;;;20.02;10.07;;;;;;;;;;4965105;28;20022;-87
2022/03/30 06:57:26;;;;;;;18.30;10.07;;;;;;;;;;4966087;28;20029;-81
2022/03/30 06:59:51;;;;;;;18.75;10.38;;;;;;;;;;4959087;28;20034;-82
2022/03/30 07:02:16;;;;;;;22.58;11.30;;;;;;;;;;4970136;28;20037;-87
2022/03/30 07:04:41;;;;;;;18.92;9.65;;;;;;;;;;4974557;28;20033;-80
2022/03/30 07:12:35;;;;;;;20.73;10.73;;;;;;;;;;4968382;28;20945;-86
2022/03/30 07:15:01;;;;;;;18.52;10.57;;;;;;;;;;4971818;28;20070;-82
2022/03/30 07:17:27;;;;;;;21.60;10.27;;;;;;;;;;4973025;28;20062;-87
2022/03/30 07:19:52;;;;;;;22.38;10.52;;;;;;;;;;4980605;28;20031;-84
2022/03/30 07:22:18;;;;;;;17.38;9.35;;;;;;;;;;4973382;28;20488;-82
2022/03/30 07:24:44;;;;;;;19.73;10.07;;;;;;;;;;4979954;28;20030;-87
2022/03/30 07:27:10;;;;;;;21.45;10.73;;;;;;;;;;4976260;28;20030;-80
2022/03/30 07:29:35;;;;;;;22.77;10.15;;;;;;;;;;4971455;28;20162;-81
2022/03/30 07:32:01;;;;;;;21.58;10.60;;;;;;;;;;4977527;28;20030;-86
2022/03/30 07:34:26;;;;;;;21.10;10.27;;;;;;;;;;4966105;28;20030;-86
2022/03/30 07:36:51;;;;;;;24.45;10.55;;;;;;;;;;4979126;28;20037;-80
2022/03/30 07:39:16;;;;;;;19.40;10.27;;;;;;;;;;4978000;28;20033;-83
2022/03/30 07:41:42;;;;;;;23.48;10.80;;;;;;;;;;4973653;28;20100;-86
2022/03/30 07:44:07;;;;;;;22.92;10.93;;;;;;;;;;4971782;28;20173;-86
2022/03/30 07:46:33;;;;;;;19.88;9.50;;;;;;;;;;4972750;28;20054;-82
2022/03/30 07:48:59;;;;;;;21.15;9.43;;;;;;;;;;4974102;28;20023;-85
2022/03/30 07:51:24;;;;;;;24.50;9.00;;;;;;;;;;4972869;28;20038;-87
2022/03/30 07:53:50;;;;;;;22.95;10.15;;;;;;;;;;4976206;28;20479;-82
2022/03/30 07:56:15;;;;;;;17.63;9.60;;;;;;;;;;4976564;28;20038;-87
2022/03/30 07:58:41;;;;;;;16.80;9.02;;;;;;;;;;4972936;28;20030;-81
2022/03/30 08:01:06;;;;;;;22.25;10.05;;;;;;;;;;4978053;28;20569;-86
2022/03/30 08:03:32;;;;;;;24.27;10.63;;;;;;;;;;4978212;28;20541;-82
2022/03/30 08:05:57;;;;;;;19.98;9.27;;;;;;;;;;4968897;28;20480;-86
2022/03/30 08:08:22;;;;;;;19.23;9.80;;;;;;;;;;4976192;28;20037;-83
2022/03/30 08:10:48;;;;;;;19.88;9.45;;;;;;;;;;4975353;28;20050;-82
2022/03/30 08:13:13;;;;;;;20.67;9.65;;;;;;;;;;4977758;28;20027;-86
2022/03/30 08:15:39;;;;;;;20.65;9.63;;;;;;;;;;4976097;28;20034;-81
2022/03/30 08:18:07;;;;;;;20.10;9.15;;;;;;;;;;4980188;28;20069;-81
2022/03/30 08:23:17;;;;;;;24.48;9.88;;;;;;;;;;4968490;28;20066;-82
2022/03/30 08:25:43;;;;;;;18.83;9.57;;;;;;;;;;4969078;28;20026;-81
2022/03/30 08:28:08;;;;;;;20.60;9.05;;;;;;;;;;4974669;28;20022;-85
2022/03/30 08:30:35;;;;;;;18.67;9.93;;;;;;;;;;4964931;28;20343;-86
2022/03/30 08:33:02;;;;;;;21.77;10.32;;;;;;;;;;4965886;28;20034;-81
2022/03/30 08:35:28;;;;;;;22.33;9.13;;;;;;;;;;4967315;28;20475;-85
2022/03/30 08:37:54;;;;;;;19.58;10.27;;;;;;;;;;4968931;28;20037;-81
2022/03/30 08:40:19;;;;;;;18.63;10.35;;;;;;;;;;4967450;28;20037;-84
2022/03/30 08:43:13;;;;;;;19.45;10.40;;;;;;;;;;4969441;28;20058;-83
2022/03/30 08:45:40;;;;;;;20.70;10.07;;;;;;;;;;4969925;28;20069;-87
2022/03/30 08:48:06;;;;;;;22.65;9.35;;;;;;;;;;4968871;28;20057;-84
2022/03/30 08:50:31;;;;;;;16.70;9.30;;;;;;;;;;4967777;28;20126;-87
2022/03/30 08:53:02;;;;;;;17.20;9.30;;;;;;;;;;4969720;28;20106;-86
2022/03/30 08:55:27;;;;;;;19.05;9.73;;;;;;;;;;4969494;28;20566;-83
2022/03/30 08:57:53;;;;;;;21.00;9.50;;;;;;;;;;4967577;28;20134;-84
2022/03/30 09:00:19;;;;;;;20.33;9.82;;;;;;;;;;4967154;28;20026;-87
2022/03/30 09:02:50;;;;;;;20.00;10.07;;;;;;;;;;4967824;28;20034;-85
2022/03/30 09:05:22;;;;;;;18.38;9.63;;;;;;;;;;4967524;28;20030;-84
2022/03/30 09:08:09;;;;;;;18.80;9.75;;;;;;;;;;4974671;28;20049;-81
2022/03/30 09:10:35;;;;;;;21.75;9.80;;;;;;;;;;4965011;28;20046;-83
2022/03/30 09:13:02;;;;;;;17.13;9.23;;;;;;;;;;4968309;28;20030;-87
2022/03/30 09:15:28;;;;;;;22.13;9.80;;;;;;;;;;4982812;28;20529;-88
2022/03/30 09:17:59;;;;;;;20.58;10.23;;;;;;;;;;4983380;28;20061;-84
2022/03/30 09:20:25;;;;;;;21.98;9.80;;;;;;;;;;4978260;28;20390;-82
2022/03/30 09:22:54;;;;;;;17.58;9.40;;;;;;;;;;4975890;28;20050;-85
2022/03/30 09:25:26;;;;;;;18.63;9.15;;;;;;;;;;4980153;28;20118;-83
2022/03/30 09:27:54;;;;;;;17.25;9.68;;;;;;;;;;4995218;28;20494;-84
2022/03/30 09:30:21;;;;;;;17.38;9.25;;;;;;;;;;4979405;28;20086;-84
2022/03/30 09:32:48;;;;;;;20.17;9.90;;;;;;;;;;4979827;28;20058;-86
2022/03/30 09:35:27;;;;;;;17.52;9.52;;;;;;;;;;4976740;28;20122;-87
2022/03/30 09:38:00;;;;;;;18.35;9.63;;;;;;;;;;4984810;28;20042;-86
2022/03/30 09:40:38;;;;;;;19.70;10.32;;;;;;;;;;4985342;28;20026;-88
2022/03/30 09:43:17;;;;;;;17.63;9.63;;;;;;;;;;4980408;28;20137;-87
2022/03/30 09:45:47;;;;;;;18.27;9.65;;;;;;;;;;4979036;28;20446;-83
2022/03/30 09:48:22;;;;;;;19.77;9.60;;;;;;;;;;4985302;28;20030;-84
2022/03/30 09:50:51;;;;;;;17.02;8.65;;;;;;;;;;4971981;28;20037;-83
2022/03/30 09:53:19;;;;;;;18.80;9.73;;;;;;;;;;4984562;28;20054;-89
2022/03/30 09:55:56;;;;;;;19.23;9.57;;;;;;;;;;4958892;28;20562;-87
2022/03/30 09:58:23;;;;;;;17.50;9.25;;;;;;;;;;4974039;28;20014;-87
2022/03/30 10:01:08;;;;;;;16.83;9.63;;;;;;;;;;4969670;28;20122;-87
2022/03/30 10:03:39;;;;;;;15.85;8.90;;;;;;;;;;4979709;28;20026;-83
2022/03/30 10:06:05;;;;;;;19.52;10.23;;;;;;;;;;4964815;28;20057;-84
2022/03/30 10:08:33;;;;;;;16.83;8.82;;;;;;;;;;4960648;28;20031;-85
2022/03/30 10:10:58;;;;;;;17.95;9.55;;;;;;;;;;4966153;28;20049;-82
2022/03/30 10:13:24;;;;;;;19.30;9.60;;;;;;;;;;4967434;28;20030;-82
2022/03/30 10:15:50;;;;;;;15.80;9.25;;;;;;;;;;4966198;28;20026;-86
2022/03/30 10:18:16;;;;;;;16.50;8.95;;;;;;;;;;4976266;28;20520;-83
2022/03/30 10:20:41;;;;;;;18.20;9.40;;;;;;;;;;4963636;28;20027;-83
2022/03/30 10:23:21;;;;;;;17.42;9.15;;;;;;;;;;4963410;28;20055;-84
2022/03/30 10:26:33;;;;;;;18.73;9.32;;;;;;;;;;4967297;28;20030;-88
2022/03/30 10:29:05;;;;;;;20.17;9.38;;;;;;;;;;4907971;29;20033;-88
2022/03/30 10:31:31;;;;;;;17.25;9.30;;;;;;;;;;4959356;28;20065;-87
2022/03/30 10:33:57;;;;;;;16.15;8.93;;;;;;;;;;4982679;28;20072;-84
2022/03/30 10:36:24;;;;;;;17.00;9.50;;;;;;;;;;4975140;28;20034;-86
2022/03/30 10:39:17;;;;;;;15.80;9.02;;;;;;;;;;4980049;28;20037;-84
2022/03/30 10:42:04;;;;;;;16.58;8.75;;;;;;;;;;4975953;28;20382;-84
2022/03/30 10:44:40;;;;;;;16.13;8.10;;;;;;;;;;4974107;28;20121;-84
2022/03/30 10:47:10;;;;;;;15.32;8.60;;;;;;;;;;4979103;28;20026;-87
2022/03/30 10:49:41;;;;;;;14.02;8.18;;;;;;;;;;4980778;28;20433;-84
2022/03/30 10:52:25;;;;;;;14.20;8.38;;;;;;;;;;4987991;28;20062;-87
2022/03/30 10:54:55;;;;;;;12.57;8.27;;;;;;;;;;4973153;28;20391;-84
2022/03/30 10:58:01;;;;;;;13.18;7.43;;;;;;;;;;4983249;28;20026;-84
2022/03/30 11:00:37;;;;;;;12.32;6.78;;;;;;;;;;4973154;28;20027;-85
2022/03/30 11:03:16;;;;;;;13.98;7.13;;;;;;;;;;4993969;28;20030;-86
2022/03/30 11:06:05;;;;;;;14.93;7.40;;;;;;;;;;4976600;28;20050;-88
2022/03/30 11:08:34;;;;;;;13.35;7.05;;;;;;;;;;4959231;28;20038;-84
2022/03/30 11:11:04;;;;;;;12.45;7.43;;;;;;;;;;4967201;28;20030;-86
2022/03/30 11:13:29;;;;;;;11.80;7.00;;;;;;;;;;4980541;28;20022;-88
2022/03/30 11:15:59;;;;;;;14.60;7.50;;;;;;;;;;4973830;28;20172;-87
2022/03/30 11:18:25;;;;;;;11.55;6.80;;;;;;;;;;4975796;28;20030;-84
2022/03/30 11:21:11;;;;;;;12.15;7.53;;;;;;;;;;4967163;28;20174;-84
2022/03/30 11:23:52;;;;;;;14.20;7.30;;;;;;;;;;4971914;28;20503;-84
2022/03/30 11:26:17;;;;;;;13.77;7.13;;;;;;;;;;4967825;28;20100;-84
2022/03/30 11:28:42;;;;;;;12.65;7.00;;;;;;;;;;4973323;28;20026;-86
2022/03/30 11:31:22;;;;;;;12.70;6.95;;;;;;;;;;4971455;28;20030;-82
2022/03/30 11:34:27;;;;;;;14.65;7.25;;;;;;;;;;4964031;28;20058;-87
2022/03/30 11:36:53;;;;;;;12.43;7.13;;;;;;;;;;4967790;28;20040;-82
2022/03/30 11:39:32;;;;;;;13.80;7.00;;;;;;;;;;4973167;28;20446;-85
2022/03/30 11:41:59;;;;;;;14.23;7.05;;;;;;;;;;4966263;28;20078;-86
2022/03/30 11:47:19;;;;;;;14.07;7.00;;;;;;;;;;4965103;28;20037;-84
2022/03/30 11:49:49;;;;;;;12.65;6.53;;;;;;;;;;4970882;28;20145;-83
2022/03/30 11:52:16;;;;;;;11.63;6.50;;;;;;;;;;4963813;28;20027;-87
2022/03/30 11:54:49;;;;;;;12.38;6.68;;;;;;;;;;4965334;28;20034;-88
2022/03/30 11:57:16;;;;;;;12.25;6.43;;;;;;;;;;4963396;28;20045;-81
2022/03/30 11:59:42;;;;;;;11.23;6.03;;;;;;;;;;4962309;28;20688;-83
2022/03/30 12:02:08;;;;;;;11.18;6.18;;;;;;;;;;4964232;28;20109;-83
2022/03/30 12:04:36;;;;;;;12.50;6.28;;;;;;;;;;4978636;28;20057;-82
2022/03/30 12:07:02;;;;;;;10.57;5.80;;;;;;;;;;4969885;28;20410;-82
2022/03/30 12:09:27;;;;;;;10.32;5.78;;;;;;;;;;4970086;28;20046;-82
2022/03/30 12:11:53;;;;;;;10.23;6.15;;;;;;;;;;4977340;28;20505;-87
2022/03/30 12:14:27;;;;;;;9.73;5.78;;;;;;;;;;4965038;28;20052;-85
2022/03/30 12:16:53;;;;;;;10.43;5.95;;;;;;;;;;4977811;28;20072;-84
2022/03/30 12:19:19;;;;;;;9.80;5.43;;;;;;;;;;4968521;28;20027;-87
2022/03/30 12:21:45;;;;;;;10.93;5.57;;;;;;;;;;4965196;28;20034;-85
2022/03/30 12:24:11;;;;;;;10.57;5.57;;;;;;;;;;4962918;28;20031;-85
2022/03/30 12:26:38;;;;;;;13.00;5.90;;;;;;;;;;4967260;28;20027;-84
2022/03/30 12:29:05;;;;;;;11.10;5.88;;;;;;;;;;4964589;28;20045;-82
2022/03/30 12:31:36;;;;;;;12.43;5.97;;;;;;;;;;4972064;28;20037;-83
2022/03/30 12:34:13;;;;;;;9.82;5.68;;;;;;;;;;4971936;28;20027;-82
2022/03/30 12:36:43;;;;;;;11.73;5.85;;;;;;;;;;4966297;28;20033;-82
2022/03/30 12:39:27;;;;;;;10.10;6.00;;;;;;;;;;4964716;28;20030;-83
2022/03/30 12:42:05;;;;;;;;;;;;;;;;;;4971774;28;20046;-84
2022/03/30 12:44:34;;;;;;;9.73;5.75;;;;;;;;;;4973325;28;19965;-83
2022/03/30 12:47:03;;;;;;;10.45;5.55;;;;;;;;;;4978946;28;20074;-83
2022/03/30 12:49:38;;;;;;;12.18;6.22;;;;;;;;;;4970993;28;20029;-82
2022/03/30 12:52:14;;;;;;;10.95;5.97;;;;;;;;;;4968228;28;20033;-84
2022/03/30 12:54:42;;;;;;;9.68;5.95;;;;;;;;;;4978919;28;20388;-81
2022/03/30 12:57:08;;;;;;;12.35;6.88;;;;;;;;;;4983144;28;20023;-83
2022/03/30 12:59:34;;;;;;;12.27;6.10;;;;;;;;;;4970600;28;20039;-82
2022/03/30 13:02:16;;;;;;;9.73;6.32;;;;;;;;;;4973975;28;20072;-82
2022/03/30 13:04:48;;;;;;;12.27;6.75;;;;;;;;;;4974043;28;20031;-84
2022/03/30 13:07:16;;;;;;;9.85;5.95;;;;;;;;;;4975271;28;20026;-84
2022/03/30 13:09:59;;;;;;;10.57;5.90;;;;;;;;;;4972077;28;20054;-82
2022/03/30 13:12:31;;;;;;;10.25;6.07;;;;;;;;;;4972658;28;20113;-83
2022/03/30 13:15:04;;;;;;;10.55;6.05;;;;;;;;;;4977523;28;20122;-82
2022/03/30 13:17:29;;;;;;;12.18;6.15;;;;;;;;;;4972329;28;20038;-83
2022/03/30 13:19:59;;;;;;;11.98;6.30;;;;;;;;;;4971869;28;20701;-84
2022/03/30 13:22:25;;;;;;;12.85;6.20;;;;;;;;;;4973337;28;20051;-81
2022/03/30 13:24:52;;;;;;;13.32;6.82;;;;;;;;;;4969303;28;20065;-82
2022/03/30 13:27:18;;;;;;;10.20;6.00;;;;;;;;;;4970823;28;20077;-82
2022/03/30 13:29:44;;;;;;;9.90;5.90;;;;;;;;;;4965628;28;20050;-83
2022/03/30 13:32:09;;;;;;;11.75;6.07;;;;;;;;;;4959150;28;20058;-82
2022/03/30 13:34:35;;;;;;;9.75;5.75;;;;;;;;;;4965264;28;20431;-82
2022/03/30 13:37:00;;;;;;;10.95;6.50;;;;;;;;;;4965174;28;20074;-82
2022/03/30 13:39:26;;;;;;;11.77;6.25;;;;;;;;;;4964926;28;20113;-82
2022/03/30 13:41:52;;;;;;;9.73;6.18;;;;;;;;;;4962270;28;20125;-82
2022/03/30 13:44:19;;;;;;;13.23;6.53;;;;;;;;;;4964726;28;20023;-82
2022/03/30 13:46:44;;;;;;;11.70;6.05;;;;;;;;;;4966412;28;20042;-83
2022/03/30 13:49:10;;;;;;;13.00;6.32;;;;;;;;;;4973799;28;20023;-82
2022/03/30 13:51:36;;;;;;;12.82;6.80;;;;;;;;;;4968809;28;20034;-83
2022/03/30 13:54:03;;;;;;;12.13;6.35;;;;;;;;;;4964400;28;20027;-82
2022/03/30 13:56:29;;;;;;;11.23;6.28;;;;;;;;;;4970111;28;20061;-82
2022/03/30 13:58:55;;;;;;;12.60;6.35;;;;;;;;;;4973900;28;20553;-82
2022/03/30 14:01:30;;;;;;;9.88;6.28;;;;;;;;;;4972364;28;20318;-83
2022/03/30 14:03:56;;;;;;;9.90;6.28;;;;;;;;;;4977481;28;20037;-82
2022/03/30 14:06:23;;;;;;;9.88;5.75;;;;;;;;;;4972934;28;20031;-81
2022/03/30 14:08:49;;;;;;;9.18;6.15;;;;;;;;;;4978437;28;20180;-81
2022/03/30 14:11:16;;;;;;;8.30;5.75;;;;;;;;;;4977741;28;20118;-83
2022/03/30 14:13:41;;;;;;;12.50;6.03;;;;;;;;;;4977807;28;20129;-83
2022/03/30 14:16:07;;;;;;;10.57;6.57;;;;;;;;;;4977148;28;20038;-82
2022/03/30 14:18:33;;;;;;;9.02;5.85;;;;;;;;;;4977959;28;20030;-84
2022/03/30 14:20:59;;;;;;;9.93;5.65;;;;;;;;;;4975232;28;20050;-81
2022/03/30 14:23:25;;;;;;;12.82;6.80;;;;;;;;;;4973172;28;20062;-82
2022/03/30 14:25:51;;;;;;;10.30;5.57;;;;;;;;;;4976646;28;20061;-84
2022/03/30 14:28:16;;;;;;;11.40;6.40;;;;;;;;;;4971496;28;20054;-84
2022/03/30 14:30:42;;;;;;;8.70;5.40;;;;;;;;;;4990023;28;20023;-82
2022/03/30 14:33:08;;;;;;;8.98;5.60;;;;;;;;;;4978806;28;20026;-83
2022/03/30 14:35:36;;;;;;;13.38;5.80;;;;;;;;;;4991829;28;20114;-83
2022/03/30 14:38:04;;;;;;;9.90;5.85;;;;;;;;;;4982291;28;20069;-81
2022/03/30 14:40:30;;;;;;;10.45;5.45;;;;;;;;;;4970993;28;20042;-83